Terminal Aerodrome Forecast
Issued by NWS

Home | Current Version | Previous Version | Text Only | Print | Product List | Glossary On
Versions: 1 2 3 4 5 6 7 8 9 10 11 12 13 14 15
956
FTUS45 KVEF 211126
TAFHND
TAF
KHND 211126Z 2112/2212 21012G20KT P6SM SCT050 BKN080
     FM211800 24012G20KT P6SM FEW050 SCT120
     FM220000 23009KT P6SM FEW120 SCT200
     FM220600 21009KT P6SM BKN120=

USA.gov is the U.S. government's official web portal to all federal, state and local government web resources and services.